Time;durP1;ratioP1;P1;durP2;ratioP2;P2;SDS_P1;SDS_P2;PMS_P1;PMS_P2;Temp;Humidity;BMP_temperature;BMP_pressure;BME280_temperature;BME280_humidity;BME280_pressure;Samples;Min_cycle;Max_cycle;Signal;HPM_P1;HPM_P2
2023/08/10 00:01:20;;;;;;;4.20;1.57;;;19.30;42.70;;;;;;5054897;28;20175;-80
2023/08/10 00:03:47;;;;;;;4.30;1.40;;;19.20;43.30;;;;;;5054531;28;20188;-79
2023/08/10 00:06:14;;;;;;;1.23;1.13;;;19.30;43.40;;;;;;5053757;28;20278;-76
2023/08/10 00:08:42;;;;;;;2.97;1.50;;;19.50;43.60;;;;;;5054068;28;20237;-80
2023/08/10 00:11:09;;;;;;;2.03;1.43;;;19.50;42.70;;;;;;5056285;28;20187;-79
2023/08/10 00:13:36;;;;;;;3.43;1.53;;;19.50;43.00;;;;;;5054646;28;20573;-78
2023/08/10 00:16:04;;;;;;;6.30;1.53;;;19.70;43.30;;;;;;5056518;28;20226;-78
2023/08/10 00:18:31;;;;;;;3.30;1.30;;;19.80;42.90;;;;;;5054010;28;20669;-77
2023/08/10 00:20:59;;;;;;;2.10;1.40;;;19.90;43.20;;;;;;5051828;28;20263;-75
2023/08/10 00:23:27;;;;;;;3.00;1.40;;;20.00;43.00;;;;;;5053964;28;20176;-80
2023/08/10 00:25:54;;;;;;;1.30;1.20;;;20.10;41.80;;;;;;5053580;28;20568;-78
2023/08/10 00:28:21;;;;;;;6.43;1.90;;;20.00;41.60;;;;;;5054570;28;20255;-80
2023/08/10 00:30:49;;;;;;;2.93;1.60;;;20.00;41.40;;;;;;5054129;28;20557;-83
2023/08/10 00:33:16;;;;;;;4.43;1.40;;;20.00;41.70;;;;;;5055417;28;20178;-81
2023/08/10 00:35:43;;;;;;;2.73;1.73;;;20.10;41.40;;;;;;5057472;28;20176;-79
2023/08/10 00:38:11;;;;;;;3.57;1.57;;;20.20;42.20;;;;;;5047592;28;20226;-79
2023/08/10 00:40:38;;;;;;;3.17;1.30;;;20.30;42.30;;;;;;5053547;28;20680;-77
2023/08/10 00:43:05;;;;;;;2.90;1.50;;;20.50;42.70;;;;;;5051604;28;20180;-80
2023/08/10 00:45:33;;;;;;;3.23;1.60;;;20.60;41.00;;;;;;5052818;28;20216;-77
2023/08/10 00:48:01;;;;;;;2.77;1.40;;;20.60;41.50;;;;;;5050730;28;20184;-77
2023/08/10 00:50:29;;;;;;;4.27;1.53;;;20.70;41.00;;;;;;5054790;28;20230;-76
2023/08/10 00:52:56;;;;;;;7.40;1.80;;;20.60;41.30;;;;;;5053110;28;20168;-75
2023/08/10 00:55:24;;;;;;;2.27;1.60;;;20.60;40.70;;;;;;5053820;28;20187;-81
2023/08/10 00:57:51;;;;;;;2.10;1.53;;;20.70;40.60;;;;;;5053044;28;20172;-79
2023/08/10 01:00:18;;;;;;;3.40;1.67;;;20.80;40.70;;;;;;5032352;28;20184;-77
2023/08/10 01:02:46;;;;;;;3.57;1.70;;;20.90;40.90;;;;;;5053975;28;20206;-77
2023/08/10 01:05:14;;;;;;;3.33;1.47;;;20.80;40.50;;;;;;5053010;28;20265;-80
2023/08/10 01:07:52;;;;;;;2.43;1.20;;;20.90;40.70;;;;;;5035053;28;20653;-77
2023/08/10 01:10:45;;;;;;;7.17;1.90;;;21.10;40.20;;;;;;5035030;28;20187;-81
2023/08/10 01:13:37;;;;;;;2.83;1.80;;;21.20;41.00;;;;;;5050396;28;20196;-78
2023/08/10 01:16:10;;;;;;;3.00;1.60;;;21.10;40.60;;;;;;5050617;28;20550;-73
2023/08/10 01:18:40;;;;;;;3.37;1.40;;;21.40;40.40;;;;;;5032375;28;20180;-80
2023/08/10 01:21:40;;;;;;;2.93;1.50;;;21.40;40.10;;;;;;5050444;28;20200;-77
2023/08/10 01:24:20;;;;;;;1.60;1.40;;;21.60;38.70;;;;;;5050060;28;20179;-78
2023/08/10 01:26:49;;;;;;;3.70;1.60;;;21.70;39.30;;;;;;5046231;28;20242;-80
2023/08/10 01:29:16;;;;;;;1.70;1.30;;;21.80;38.90;;;;;;5031431;28;20646;-75
2023/08/10 01:31:44;;;;;;;5.43;1.33;;;22.00;37.70;;;;;;5050540;28;20180;-79
2023/08/10 01:34:11;;;;;;;4.97;1.60;;;21.90;38.00;;;;;;5050117;28;20258;-74
2023/08/10 01:36:38;;;;;;;3.10;1.40;;;21.90;38.10;;;;;;5050806;28;20226;-72
2023/08/10 01:39:06;;;;;;;3.43;1.80;;;22.00;37.70;;;;;;5051775;28;20183;-76
2023/08/10 01:41:33;;;;;;;6.53;1.37;;;21.90;38.30;;;;;;5045038;28;20186;-75
2023/08/10 01:44:01;;;;;;;1.50;1.40;;;21.90;38.00;;;;;;5048299;28;20603;-74
2023/08/10 01:46:31;;;;;;;2.10;1.50;;;21.90;38.50;;;;;;5050308;28;20220;-74
2023/08/10 01:49:01;;;;;;;5.57;1.60;;;22.00;38.30;;;;;;5050605;28;20662;-76
2023/08/10 01:51:29;;;;;;;1.93;1.57;;;22.00;38.40;;;;;;5050877;28;20623;-76
2023/08/10 01:54:03;;;;;;;2.90;1.70;;;22.00;39.00;;;;;;5050763;28;20204;-75
2023/08/10 01:56:30;;;;;;;1.27;1.13;;;22.40;38.30;;;;;;5051292;28;20550;-76
2023/08/10 01:59:00;;;;;;;4.53;1.30;;;22.60;38.10;;;;;;5050765;28;20513;-77
2023/08/10 02:01:27;;;;;;;2.63;1.30;;;22.70;37.30;;;;;;5051181;28;20665;-81
2023/08/10 02:03:54;;;;;;;2.73;1.43;;;22.80;37.30;;;;;;5050907;28;20534;-73
2023/08/10 02:06:22;;;;;;;2.13;1.23;;;23.10;36.90;;;;;;5051994;28;20219;-75
2023/08/10 02:08:49;;;;;;;2.47;1.23;;;23.50;36.70;;;;;;5033435;28;20183;-74
2023/08/10 02:11:16;;;;;;;3.10;1.30;;;23.40;36.30;;;;;;5050982;28;20674;-75
2023/08/10 02:13:46;;;;;;;1.83;1.50;;;23.70;36.30;;;;;;5052026;28;20252;-77
2023/08/10 02:16:14;;;;;;;4.67;1.30;;;23.70;35.60;;;;;;5049685;28;20843;-77
2023/08/10 02:18:41;;;;;;;5.10;1.37;;;23.80;35.80;;;;;;5054439;28;20188;-76
2023/08/10 02:21:09;;;;;;;2.60;1.20;;;23.50;35.80;;;;;;5058310;28;20172;-76
2023/08/10 02:23:36;;;;;;;2.53;1.13;;;23.10;36.30;;;;;;5052992;28;20180;-76
2023/08/10 02:26:04;;;;;;;2.50;1.23;;;22.80;36.30;;;;;;5038865;28;20224;-77
2023/08/10 02:28:31;;;;;;;4.40;1.33;;;22.60;36.20;;;;;;5056719;28;20196;-78
2023/08/10 02:30:59;;;;;;;2.47;1.03;;;22.30;33.80;;;;;;5060389;28;20203;-72
2023/08/10 02:33:26;;;;;;;6.37;1.37;;;22.40;32.60;;;;;;5059717;28;20206;-74
2023/08/10 02:35:54;;;;;;;2.07;1.03;;;22.50;32.20;;;;;;5059973;28;20244;-73
2023/08/10 02:38:21;;;;;;;3.03;1.37;;;22.50;32.00;;;;;;5059479;28;20577;-76
2023/08/10 02:40:49;;;;;;;6.90;1.13;;;22.80;31.70;;;;;;5056585;28;20183;-73
2023/08/10 02:43:16;;;;;;;6.30;1.10;;;23.10;31.30;;;;;;5059246;28;20180;-76
2023/08/10 02:45:43;;;;;;;3.40;0.90;;;23.50;31.10;;;;;;5060221;28;20712;-75
2023/08/10 02:48:11;;;;;;;4.40;1.47;;;23.70;30.40;;;;;;5059038;28;20630;-73
2023/08/10 02:50:38;;;;;;;2.97;1.03;;;23.80;30.60;;;;;;5059056;28;20290;-74
2023/08/10 02:53:05;;;;;;;2.87;1.00;;;23.80;30.80;;;;;;5057488;28;20180;-75
2023/08/10 02:55:33;;;;;;;2.27;1.00;;;23.70;31.00;;;;;;5057044;28;20180;-72
2023/08/10 02:58:00;;;;;;;1.60;1.00;;;23.90;30.90;;;;;;5056262;28;20191;-77
2023/08/10 03:00:28;;;;;;;3.00;1.47;;;24.30;31.20;;;;;;5055408;28;20176;-71
2023/08/10 03:02:55;;;;;;;5.13;1.30;;;24.10;30.70;;;;;;5054932;28;20194;-74
2023/08/10 03:05:22;;;;;;;1.90;1.00;;;24.00;31.50;;;;;;5053333;28;20251;-78
2023/08/10 03:07:50;;;;;;;4.60;1.10;;;23.60;32.20;;;;;;5055307;28;20262;-78
2023/08/10 03:10:17;;;;;;;4.47;1.10;;;23.30;31.70;;;;;;5053435;28;20184;-72
2023/08/10 03:12:44;;;;;;;2.47;0.97;;;23.30;30.30;;;;;;5054042;28;20180;-75
2023/08/10 03:15:12;;;;;;;1.97;0.90;;;23.60;29.60;;;;;;5054311;28;20263;-76
2023/08/10 03:17:39;;;;;;;3.53;1.23;;;23.70;29.60;;;;;;5053946;28;20255;-75
2023/08/10 03:20:16;;;;;;;4.03;1.47;;;23.90;29.80;;;;;;5052534;28;20188;-80
2023/08/10 03:22:47;;;;;;;2.83;1.00;;;24.20;29.50;;;;;;5051456;28;20553;-76
2023/08/10 03:25:17;;;;;;;3.20;1.10;;;24.30;29.70;;;;;;5053510;28;20293;-79
2023/08/10 03:27:44;;;;;;;0.70;0.67;;;24.30;29.00;;;;;;5054145;28;20665;-73
2023/08/10 03:30:12;;;;;;;2.87;1.00;;;24.30;28.90;;;;;;5052057;28;20176;-76
2023/08/10 03:32:40;;;;;;;7.13;1.10;;;24.30;29.00;;;;;;5050716;28;20175;-77
2023/08/10 03:35:08;;;;;;;3.83;1.00;;;24.30;29.10;;;;;;5050216;28;20188;-77
2023/08/10 03:37:35;;;;;;;2.90;1.00;;;24.50;28.80;;;;;;5033518;28;20212;-78
2023/08/10 03:40:03;;;;;;;1.37;0.93;;;24.50;28.50;;;;;;5051778;28;20215;-70
2023/08/10 03:42:34;;;;;;;1.80;0.83;;;24.50;28.50;;;;;;5051924;28;20629;-73
2023/08/10 03:45:01;;;;;;;3.13;0.87;;;24.60;28.40;;;;;;5054756;28;20223;-77
2023/08/10 03:47:28;;;;;;;3.07;1.40;;;24.70;28.00;;;;;;5055427;28;20180;-72
2023/08/10 03:49:56;;;;;;;1.43;0.90;;;24.90;28.30;;;;;;5054340;28;20186;-80
2023/08/10 03:52:23;;;;;;;1.27;0.90;;;25.10;27.90;;;;;;5050340;28;20647;-75
2023/08/10 03:54:50;;;;;;;2.73;0.90;;;24.80;28.00;;;;;;5055401;28;20675;-74
2023/08/10 03:57:20;;;;;;;3.07;0.90;;;24.60;28.10;;;;;;5055170;28;20219;-73
2023/08/10 03:59:48;;;;;;;1.10;0.83;;;24.50;28.50;;;;;;5055429;28;20191;-75
2023/08/10 04:02:15;;;;;;;2.27;0.87;;;24.90;28.20;;;;;;5055509;28;20269;-79
2023/08/10 04:04:42;;;;;;;5.83;1.10;;;25.10;27.60;;;;;;5054759;28;20192;-74
2023/08/10 04:07:10;;;;;;;1.77;0.80;;;25.30;27.60;;;;;;5055207;28;20188;-81
2023/08/10 04:09:39;;;;;;;7.83;1.20;;;25.00;28.00;;;;;;5058217;28;20234;-73
2023/08/10 04:12:07;;;;;;;1.97;1.00;;;25.20;27.80;;;;;;5054229;28;20179;-76
2023/08/10 04:14:34;;;;;;;2.17;0.87;;;25.30;27.80;;;;;;5050590;28;20172;-77
2023/08/10 04:17:05;;;;;;;3.93;0.80;;;25.30;28.20;;;;;;5034702;28;20188;-75
2023/08/10 04:19:32;;;;;;;2.90;1.00;;;25.00;28.00;;;;;;5050481;28;20252;-76
2023/08/10 04:22:00;;;;;;;2.40;1.00;;;24.70;28.60;;;;;;5051164;28;20187;-75
2023/08/10 04:24:27;;;;;;;1.83;1.00;;;24.30;28.80;;;;;;5034636;28;20270;-77
2023/08/10 04:26:57;;;;;;;2.17;1.07;;;24.50;29.30;;;;;;5049234;28;20196;-78
2023/08/10 04:29:26;;;;;;;3.37;1.00;;;24.30;29.20;;;;;;5051070;28;20180;-76
2023/08/10 04:31:54;;;;;;;2.77;0.97;;;24.40;29.50;;;;;;5051804;28;20183;-82
2023/08/10 04:34:24;;;;;;;1.47;0.90;;;24.90;28.90;;;;;;5051755;28;20184;-84
2023/08/10 04:36:52;;;;;;;4.07;0.97;;;24.70;28.80;;;;;;5050961;28;20295;-77
2023/08/10 04:39:19;;;;;;;5.80;0.80;;;24.50;29.10;;;;;;5052975;28;20180;-83
2023/08/10 04:41:46;;;;;;;1.90;0.80;;;24.50;28.90;;;;;;5034740;28;20188;-76
2023/08/10 04:44:14;;;;;;;1.10;0.80;;;24.80;28.20;;;;;;5053123;28;20183;-79
2023/08/10 04:46:41;;;;;;;4.63;1.20;;;24.30;29.00;;;;;;5051825;28;20218;-77
2023/08/10 04:49:09;;;;;;;3.03;1.00;;;24.50;28.50;;;;;;5052003;28;20203;-78
2023/08/10 04:51:36;;;;;;;3.10;1.07;;;24.50;28.90;;;;;;5050832;28;20207;-80
2023/08/10 04:54:04;;;;;;;5.47;1.20;;;24.70;28.30;;;;;;5032357;28;20186;-81
2023/08/10 04:56:34;;;;;;;0.70;0.70;;;24.70;28.40;;;;;;5030968;28;20181;-74
2023/08/10 04:59:08;;;;;;;0.90;0.77;;;24.90;28.60;;;;;;5053123;28;20188;-84
2023/08/10 05:01:35;;;;;;;2.53;0.93;;;25.10;28.40;;;;;;5036173;28;20223;-84
2023/08/10 05:04:03;;;;;;;3.30;0.80;;;25.20;28.40;;;;;;5034727;28;20191;-80
2023/08/10 05:06:31;;;;;;;2.17;1.03;;;25.00;28.80;;;;;;5029064;28;20216;-80
2023/08/10 05:08:59;;;;;;;7.10;1.20;;;24.90;28.60;;;;;;5050009;28;20191;-85
2023/08/10 05:11:26;;;;;;;2.67;0.67;;;24.90;28.60;;;;;;5054457;28;20192;-80
2023/08/10 05:13:54;;;;;;;2.50;1.37;;;24.90;28.40;;;;;;5049567;28;20181;-73
2023/08/10 05:16:24;;;;;;;1.60;0.73;;;24.80;28.60;;;;;;5052165;28;20704;-80
2023/08/10 05:18:52;;;;;;;2.63;0.80;;;24.90;28.60;;;;;;5051575;28;20218;-78
2023/08/10 05:21:19;;;;;;;1.93;0.90;;;24.90;28.60;;;;;;5051070;28;20203;-74
2023/08/10 05:23:46;;;;;;;3.53;1.10;;;25.30;28.30;;;;;;5053200;28;20275;-79
2023/08/10 05:26:16;;;;;;;4.73;0.90;;;25.30;28.40;;;;;;5038448;28;20220;-72
2023/08/10 05:28:43;;;;;;;3.17;0.80;;;25.50;27.70;;;;;;5052325;28;20262;-82
2023/08/10 05:31:11;;;;;;;3.67;1.10;;;25.50;27.90;;;;;;5049975;28;20192;-77
2023/08/10 05:33:39;;;;;;;4.57;1.00;;;25.40;28.20;;;;;;5046189;28;20744;-80
2023/08/10 05:36:08;;;;;;;3.47;1.10;;;25.30;28.10;;;;;;5047764;28;20337;-83
2023/08/10 05:38:36;;;;;;;2.53;1.00;;;25.10;27.70;;;;;;5053384;28;20186;-74
2023/08/10 05:41:03;;;;;;;1.57;1.00;;;25.30;27.30;;;;;;5053288;28;20192;-77
2023/08/10 05:43:30;;;;;;;2.60;1.00;;;25.00;27.40;;;;;;5052049;28;20223;-75
2023/08/10 05:45:58;;;;;;;3.60;1.10;;;25.00;27.20;;;;;;5050117;28;20230;-76
2023/08/10 05:48:27;;;;;;;4.20;1.13;;;25.30;27.30;;;;;;5052683;28;20690;-78
2023/08/10 05:50:54;;;;;;;1.77;1.00;;;25.00;26.80;;;;;;5050677;28;20194;-73
2023/08/10 05:53:26;;;;;;;2.07;0.87;;;24.80;26.50;;;;;;5049069;28;20188;-73
2023/08/10 05:55:53;;;;;;;1.77;0.90;;;24.50;27.30;;;;;;5051290;28;20199;-74
2023/08/10 05:58:20;;;;;;;1.53;0.90;;;24.20;27.80;;;;;;5047377;28;20187;-74
2023/08/10 06:00:51;;;;;;;4.43;1.00;;;24.30;27.90;;;;;;5050957;28;20245;-74
2023/08/10 06:03:18;;;;;;;1.93;0.90;;;24.30;28.00;;;;;;5050538;28;20180;-75
2023/08/10 06:05:46;;;;;;;3.63;1.10;;;24.70;27.80;;;;;;5051449;28;20359;-74
2023/08/10 06:08:14;;;;;;;1.43;0.83;;;25.30;27.10;;;;;;5049959;28;20195;-73
2023/08/10 06:10:43;;;;;;;2.37;1.00;;;24.80;27.40;;;;;;5052496;28;20175;-73
2023/08/10 06:13:10;;;;;;;2.97;0.87;;;24.30;28.20;;;;;;5046918;28;20191;-75
2023/08/10 06:15:38;;;;;;;3.00;0.90;;;23.30;28.30;;;;;;5051910;28;20195;-72
2023/08/10 06:18:05;;;;;;;3.63;1.00;;;22.70;29.40;;;;;;5051318;28;20271;-74
2023/08/10 06:20:33;;;;;;;3.83;1.00;;;22.50;29.60;;;;;;5052485;28;20230;-73
2023/08/10 06:23:01;;;;;;;2.33;0.90;;;22.20;28.70;;;;;;5051284;28;20180;-72
2023/08/10 06:25:30;;;;;;;1.17;0.83;;;22.20;28.20;;;;;;5033476;28;20220;-74
2023/08/10 06:27:58;;;;;;;2.80;1.10;;;22.00;28.80;;;;;;5051536;28;20180;-73
2023/08/10 06:30:26;;;;;;;2.93;1.00;;;21.80;29.40;;;;;;5056243;28;20192;-73
2023/08/10 06:32:53;;;;;;;1.17;0.80;;;21.60;29.10;;;;;;5052301;28;20660;-75
2023/08/10 06:35:21;;;;;;;2.47;0.77;;;21.50;29.70;;;;;;5052173;28;20215;-74
2023/08/10 06:37:50;;;;;;;2.93;0.73;;;21.40;27.70;;;;;;5054394;28;20223;-73
2023/08/10 06:40:17;;;;;;;2.87;1.10;;;21.20;27.10;;;;;;5053637;28;20169;-76
2023/08/10 06:42:46;;;;;;;1.77;0.83;;;21.00;26.80;;;;;;5053939;28;20193;-72
2023/08/10 06:45:14;;;;;;;1.57;0.80;;;21.00;27.20;;;;;;5057354;28;20200;-71
2023/08/10 06:47:41;;;;;;;3.17;1.00;;;20.90;26.10;;;;;;5053160;28;20184;-73
2023/08/10 06:50:10;;;;;;;3.07;0.83;;;20.80;26.00;;;;;;5058762;28;20527;-78
2023/08/10 06:52:37;;;;;;;0.77;0.77;;;20.70;26.00;;;;;;5054289;28;20176;-73
2023/08/10 06:55:06;;;;;;;1.87;0.80;;;20.60;26.00;;;;;;5054938;28;20183;-77
2023/08/10 06:57:35;;;;;;;0.60;0.60;;;20.60;26.00;;;;;;5056639;28;20172;-76
2023/08/10 07:00:07;;;;;;;1.33;0.80;;;20.50;26.00;;;;;;5052378;28;20223;-79
2023/08/10 07:02:36;;;;;;;3.57;1.00;;;20.40;26.40;;;;;;5051108;28;20253;-74
2023/08/10 07:05:03;;;;;;;0.67;0.67;;;20.30;26.40;;;;;;5055610;28;20297;-75
2023/08/10 07:07:30;;;;;;;1.80;0.90;;;20.30;26.50;;;;;;5038390;28;20179;-74
2023/08/10 07:10:00;;;;;;;0.83;0.80;;;20.10;26.80;;;;;;5049853;28;20195;-75
2023/08/10 07:12:28;;;;;;;1.83;1.10;;;20.10;27.20;;;;;;5054909;28;20176;-76
2023/08/10 07:14:55;;;;;;;1.10;0.80;;;20.00;27.60;;;;;;5034959;28;20222;-73
2023/08/10 07:17:22;;;;;;;3.70;1.00;;;19.90;28.10;;;;;;5054430;28;20198;-75
2023/08/10 07:19:50;;;;;;;1.23;1.07;;;19.80;28.60;;;;;;5054128;28;20661;-75
2023/08/10 07:22:17;;;;;;;3.30;1.20;;;19.60;29.00;;;;;;5049600;28;20196;-72
2023/08/10 07:24:44;;;;;;;0.80;0.80;;;19.50;29.00;;;;;;5051378;28;20206;-73
2023/08/10 07:27:12;;;;;;;3.43;1.10;;;19.40;29.40;;;;;;5055502;28;20199;-73
2023/08/10 07:29:39;;;;;;;8.63;1.40;;;19.30;29.70;;;;;;5055163;28;20187;-73
2023/08/10 07:32:07;;;;;;;2.43;0.90;;;19.30;29.90;;;;;;5052583;28;20669;-75
2023/08/10 07:34:34;;;;;;;2.87;1.23;;;19.20;30.10;;;;;;5055575;28;20180;-76
2023/08/10 07:37:02;;;;;;;1.10;1.00;;;19.10;30.60;;;;;;5053444;28;20234;-75
2023/08/10 07:39:33;;;;;;;2.60;0.87;;;19.00;31.20;;;;;;5056292;28;20215;-71
2023/08/10 07:42:00;;;;;;;4.50;1.30;;;18.90;31.60;;;;;;5054327;28;20232;-81
2023/08/10 07:44:28;;;;;;;2.33;0.90;;;18.80;31.80;;;;;;5053994;28;20186;-76
2023/08/10 07:46:55;;;;;;;1.10;1.00;;;18.80;32.20;;;;;;5053035;28;20225;-77
2023/08/10 07:49:22;;;;;;;2.00;1.30;;;18.70;32.60;;;;;;5053217;28;20285;-78
2023/08/10 07:51:50;;;;;;;2.57;1.23;;;18.60;32.90;;;;;;5051110;28;20271;-76
2023/08/10 07:54:17;;;;;;;3.43;1.03;;;18.60;33.10;;;;;;5054443;28;20182;-73
2023/08/10 07:56:45;;;;;;;1.53;1.00;;;18.40;33.80;;;;;;5036079;28;20183;-75
2023/08/10 07:59:12;;;;;;;3.37;1.00;;;18.40;33.90;;;;;;5053430;28;20227;-74
2023/08/10 08:01:40;;;;;;;1.63;1.20;;;18.30;34.00;;;;;;5054094;28;20606;-79
2023/08/10 08:04:08;;;;;;;2.40;1.40;;;18.30;34.30;;;;;;5052885;28;20188;-76
2023/08/10 08:06:36;;;;;;;4.03;1.20;;;18.30;34.40;;;;;;5054299;28;20243;-74
2023/08/10 08:09:06;;;;;;;2.17;1.30;;;18.20;35.00;;;;;;5052808;28;20183;-80
2023/08/10 08:11:38;;;;;;;1.40;1.00;;;18.10;35.10;;;;;;5029604;28;20305;-72
2023/08/10 08:14:06;;;;;;;3.57;1.03;;;18.10;35.30;;;;;;5052512;28;20189;-78
2023/08/10 08:16:33;;;;;;;2.00;1.23;;;18.00;35.50;;;;;;5053021;28;20176;-75
2023/08/10 08:19:01;;;;;;;3.70;1.33;;;18.00;35.70;;;;;;5034516;28;20179;-74
2023/08/10 08:21:31;;;;;;;1.63;1.30;;;17.90;35.80;;;;;;5051707;28;20237;-82
2023/08/10 08:24:00;;;;;;;5.27;1.30;;;17.80;36.10;;;;;;5050019;28;20179;-73
2023/08/10 08:26:32;;;;;;;2.07;1.40;;;17.80;36.20;;;;;;5051122;28;20243;-75
2023/08/10 08:28:59;;;;;;;2.87;1.40;;;17.80;36.40;;;;;;5034670;28;20186;-75
2023/08/10 08:31:27;;;;;;;2.90;1.37;;;17.80;36.60;;;;;;5036124;28;20184;-78
2023/08/10 08:33:55;;;;;;;3.67;1.57;;;17.70;36.70;;;;;;5053261;28;20179;-72
2023/08/10 08:36:26;;;;;;;2.37;1.17;;;17.60;36.90;;;;;;5046169;28;20630;-78
2023/08/10 08:38:53;;;;;;;2.60;1.30;;;17.50;37.10;;;;;;5035607;28;20199;-75
2023/08/10 08:41:23;;;;;;;1.80;1.23;;;17.50;37.20;;;;;;5053708;28;20516;-77
2023/08/10 08:43:51;;;;;;;1.73;1.10;;;17.50;37.30;;;;;;5053246;28;20194;-73
2023/08/10 08:46:28;;;;;;;1.63;0.90;;;17.50;37.50;;;;;;5053803;28;20684;-75
2023/08/10 08:48:58;;;;;;;2.00;0.90;;;17.40;37.80;;;;;;5052160;28;20274;-73
2023/08/10 08:51:27;;;;;;;2.07;1.23;;;17.40;37.80;;;;;;5048348;28;20197;-74
2023/08/10 08:53:56;;;;;;;2.10;1.30;;;17.40;37.90;;;;;;5052608;28;20192;-74
2023/08/10 08:56:23;;;;;;;4.77;1.07;;;17.30;38.00;;;;;;5052762;28;20183;-73
2023/08/10 08:58:55;;;;;;;2.43;1.47;;;17.30;38.20;;;;;;5056536;28;20187;-75
2023/08/10 09:01:27;;;;;;;2.03;1.33;;;17.30;38.40;;;;;;5052526;28;20191;-76
2023/08/10 09:03:54;;;;;;;4.13;1.60;;;17.20;38.70;;;;;;5053007;28;20180;-76
2023/08/10 09:06:21;;;;;;;3.10;1.40;;;17.10;38.90;;;;;;5050933;28;20208;-74
2023/08/10 09:08:49;;;;;;;3.90;1.67;;;17.10;39.10;;;;;;5057262;28;20648;-74
2023/08/10 09:11:16;;;;;;;2.93;1.63;;;17.00;39.40;;;;;;5052697;28;20679;-74
2023/08/10 09:14:03;;;;;;;3.20;1.43;;;17.00;39.40;;;;;;5052932;28;20737;-76
2023/08/10 09:16:31;;;;;;;1.63;1.33;;;16.90;39.50;;;;;;5055596;28;20178;-76
2023/08/10 09:19:02;;;;;;;1.97;1.10;;;16.80;39.60;;;;;;5053003;28;20187;-75
2023/08/10 09:21:32;;;;;;;3.47;1.50;;;16.80;39.70;;;;;;5046822;28;20269;-77
2023/08/10 09:24:00;;;;;;;1.50;1.30;;;16.80;40.00;;;;;;5052369;28;20186;-74
2023/08/10 09:26:28;;;;;;;4.70;1.60;;;16.80;39.90;;;;;;5045715;28;20243;-76
2023/08/10 09:28:57;;;;;;;2.43;1.17;;;16.70;40.20;;;;;;5034635;28;20675;-75
2023/08/10 09:31:26;;;;;;;2.47;1.63;;;16.70;40.30;;;;;;5052728;28;20192;-77
2023/08/10 09:34:03;;;;;;;3.60;1.80;;;16.60;41.00;;;;;;5051678;28;20183;-76
2023/08/10 09:36:31;;;;;;;9.60;2.67;;;16.50;41.10;;;;;;5029502;28;20344;-74
2023/08/10 09:38:58;;;;;;;5.93;2.30;;;16.40;41.90;;;;;;5052504;28;20195;-74
2023/08/10 09:41:25;;;;;;;3.80;1.50;;;16.30;42.00;;;;;;5052834;28;20263;-76
2023/08/10 09:43:53;;;;;;;6.13;1.50;;;16.30;41.80;;;;;;5051935;28;20239;-78
2023/08/10 09:46:20;;;;;;;4.40;1.70;;;16.30;41.70;;;;;;5052167;28;20254;-76
2023/08/10 09:48:52;;;;;;;3.93;1.77;;;16.30;42.10;;;;;;5051421;28;20197;-76
2023/08/10 09:51:21;;;;;;;3.70;1.77;;;16.20;42.10;;;;;;5047882;28;20277;-75
2023/08/10 09:53:49;;;;;;;3.30;1.87;;;16.20;42.30;;;;;;5034159;28;20202;-72
2023/08/10 09:56:21;;;;;;;2.43;1.40;;;16.20;42.10;;;;;;5052174;28;20568;-76
2023/08/10 09:58:50;;;;;;;3.27;1.47;;;16.20;42.10;;;;;;5051891;28;20277;-79
2023/08/10 10:01:19;;;;;;;5.03;1.60;;;16.10;42.20;;;;;;5051498;28;20193;-73
2023/08/10 10:03:47;;;;;;;1.83;1.30;;;16.10;42.50;;;;;;5051917;28;20294;-77
2023/08/10 10:06:18;;;;;;;2.07;1.37;;;16.10;42.50;;;;;;5050521;28;20227;-78
2023/08/10 10:08:56;;;;;;;2.83;1.17;;;16.00;42.70;;;;;;5048014;28;20196;-72
2023/08/10 10:11:28;;;;;;;3.80;1.63;;;16.00;42.20;;;;;;5052779;28;20190;-76
2023/08/10 10:13:58;;;;;;;3.83;1.97;;;16.00;42.40;;;;;;5048133;28;20662;-75
2023/08/10 10:16:28;;;;;;;2.90;1.53;;;16.00;42.50;;;;;;5051622;28;20212;-78
2023/08/10 10:18:56;;;;;;;3.57;1.47;;;15.90;42.80;;;;;;5033401;28;20597;-78
2023/08/10 10:21:26;;;;;;;4.43;1.50;;;15.80;43.00;;;;;;5051490;28;20649;-77
2023/08/10 10:23:58;;;;;;;2.90;1.40;;;15.80;43.20;;;;;;5048020;28;20175;-76
2023/08/10 10:26:25;;;;;;;6.97;1.80;;;15.80;43.60;;;;;;5051706;28;20597;-76
2023/08/10 10:29:16;;;;;;;5.67;1.80;;;15.70;43.70;;;;;;5053453;28;20236;-77
2023/08/10 10:31:44;;;;;;;3.17;1.50;;;15.70;43.50;;;;;;5028368;28;20189;-76
2023/08/10 10:34:20;;;;;;;3.00;1.33;;;15.70;43.90;;;;;;5034392;28;20287;-81
2023/08/10 10:37:05;;;;;;;2.03;1.33;;;15.60;44.10;;;;;;5053798;28;20223;-82
2023/08/10 10:39:33;;;;;;;7.20;1.67;;;15.50;43.90;;;;;;5057233;28;20183;-81
2023/08/10 10:42:00;;;;;;;3.33;1.50;;;15.50;44.20;;;;;;5071308;28;20238;-75
2023/08/10 10:45:14;;;;;;;4.37;1.50;;;15.40;44.20;;;;;;5076101;28;20187;-78
2023/08/10 10:47:51;;;;;;;4.47;1.83;;;15.40;44.50;;;;;;5005299;28;20294;-76
2023/08/10 10:50:25;;;;;;;6.13;1.70;;;15.30;44.80;;;;;;4985887;28;20190;-79
2023/08/10 10:53:13;;;;;;;3.43;1.60;;;15.30;45.00;;;;;;5054912;28;20227;-81
2023/08/10 10:55:43;;;;;;;2.37;1.70;;;15.30;45.00;;;;;;5073545;28;20214;-72
2023/08/10 10:58:12;;;;;;;4.77;1.90;;;15.20;45.20;;;;;;5055979;28;20495;-76
2023/08/10 11:00:42;;;;;;;4.03;1.70;;;15.20;45.60;;;;;;5073420;28;20188;-73
2023/08/10 11:03:13;;;;;;;4.07;2.07;;;15.10;45.60;;;;;;5064386;28;20181;-78
2023/08/10 11:05:42;;;;;;;3.23;1.60;;;15.00;46.00;;;;;;5059292;28;20204;-77
2023/08/10 11:08:09;;;;;;;4.07;1.50;;;15.00;46.40;;;;;;5038390;28;20222;-72
2023/08/10 11:10:40;;;;;;;3.67;1.50;;;15.00;46.00;;;;;;5056873;28;20603;-76
2023/08/10 11:13:09;;;;;;;3.37;1.90;;;15.10;46.00;;;;;;5039464;28;20213;-78
2023/08/10 11:15:37;;;;;;;4.60;1.60;;;15.10;46.10;;;;;;5057751;28;20176;-77
2023/08/10 11:18:11;;;;;;;3.60;1.73;;;15.00;46.20;;;;;;5054508;28;20183;-73
2023/08/10 11:20:47;;;;;;;4.10;1.77;;;15.00;46.50;;;;;;5053994;28;20735;-75
2023/08/10 11:23:18;;;;;;;3.00;1.70;;;15.00;46.30;;;;;;5019625;28;20215;-76
2023/08/10 11:25:49;;;;;;;3.80;1.60;;;15.00;46.40;;;;;;5053256;28;20219;-81
2023/08/10 11:28:20;;;;;;;2.63;1.63;;;15.00;46.70;;;;;;5055602;28;20186;-75
2023/08/10 11:30:49;;;;;;;4.27;1.63;;;15.00;46.80;;;;;;5054499;28;20611;-77
2023/08/10 11:33:17;;;;;;;5.23;1.43;;;15.00;46.90;;;;;;5054529;28;20195;-72
2023/08/10 11:35:51;;;;;;;2.47;1.50;;;15.00;47.10;;;;;;5036175;28;20679;-77
2023/08/10 11:38:21;;;;;;;3.63;1.30;;;15.00;47.40;;;;;;5055099;28;20716;-76
2023/08/10 11:40:48;;;;;;;4.83;1.70;;;14.90;47.40;;;;;;5036910;28;20208;-76
2023/08/10 11:43:19;;;;;;;3.17;1.87;;;14.90;47.80;;;;;;5032786;28;20196;-77
2023/08/10 11:45:48;;;;;;;4.87;1.63;;;14.80;47.90;;;;;;5056403;28;20211;-79
2023/08/10 11:48:19;;;;;;;2.67;1.37;;;14.80;47.90;;;;;;5055199;28;20314;-74
2023/08/10 11:50:46;;;;;;;6.53;1.40;;;14.80;48.20;;;;;;5033712;28;20193;-78
2023/08/10 11:53:21;;;;;;;3.53;1.67;;;14.70;48.50;;;;;;5051735;28;20193;-76
2023/08/10 11:55:50;;;;;;;5.43;1.50;;;14.70;48.90;;;;;;5031379;28;20188;-75
2023/08/10 11:58:19;;;;;;;4.53;1.53;;;14.70;48.60;;;;;;5055456;28;20259;-75
2023/08/10 12:00:55;;;;;;;4.17;1.50;;;14.70;49.10;;;;;;5053811;28;20210;-78
2023/08/10 12:03:29;;;;;;;5.70;1.63;;;14.60;49.40;;;;;;5051466;28;20610;-78
2023/08/10 12:05:59;;;;;;;2.60;1.50;;;14.50;49.50;;;;;;5051974;28;20220;-75
2023/08/10 12:08:28;;;;;;;6.80;1.73;;;14.50;49.80;;;;;;5052038;28;20180;-72
2023/08/10 12:11:01;;;;;;;6.13;1.73;;;14.50;49.70;;;;;;5051276;28;20188;-76
2023/08/10 12:13:29;;;;;;;7.00;1.60;;;14.50;49.80;;;;;;5052660;28;20230;-76
2023/08/10 12:16:00;;;;;;;5.07;1.83;;;14.40;50.20;;;;;;5030127;28;20208;-77
2023/08/10 12:18:28;;;;;;;4.87;1.60;;;14.30;50.40;;;;;;5053832;28;20183;-75
2023/08/10 12:20:58;;;;;;;4.87;2.17;;;14.30;50.50;;;;;;5054476;28;20180;-76
2023/08/10 12:23:26;;;;;;;4.87;2.07;;;14.30;50.70;;;;;;5046945;28;20184;-77
2023/08/10 12:25:54;;;;;;;3.13;1.50;;;14.30;50.70;;;;;;5053104;28;20223;-75
2023/08/10 12:28:21;;;;;;;4.67;1.80;;;14.30;51.00;;;;;;5052974;28;20184;-76
2023/08/10 12:30:52;;;;;;;5.70;1.40;;;14.20;51.20;;;;;;5052373;28;20267;-73
2023/08/10 12:33:20;;;;;;;5.07;1.50;;;14.20;51.50;;;;;;5051952;28;20606;-76
2023/08/10 12:35:49;;;;;;;3.80;1.60;;;14.10;51.70;;;;;;5052866;28;20302;-74
2023/08/10 12:38:20;;;;;;;3.47;1.50;;;14.10;51.70;;;;;;5052997;28;20233;-74
2023/08/10 12:40:48;;;;;;;3.80;1.50;;;14.10;51.60;;;;;;5032211;28;20188;-74
2023/08/10 12:43:16;;;;;;;3.53;1.50;;;14.10;51.80;;;;;;5052583;28;20192;-75
2023/08/10 12:45:45;;;;;;;9.40;2.13;;;14.10;51.90;;;;;;5053036;28;20223;-75
2023/08/10 12:48:15;;;;;;;4.93;2.03;;;14.00;52.00;;;;;;5053112;28;20705;-72
2023/08/10 12:50:43;;;;;;;8.07;2.10;;;14.00;52.10;;;;;;5049713;28;20252;-75
2023/08/10 12:53:13;;;;;;;5.13;2.03;;;13.90;52.30;;;;;;5052659;28;20188;-75
2023/08/10 12:55:40;;;;;;;6.07;1.77;;;13.90;52.50;;;;;;5050556;28;20558;-76
2023/08/10 12:58:11;;;;;;;5.13;1.50;;;14.00;52.50;;;;;;5049281;28;20183;-76